Time;durP1;ratioP1;P1;durP2;ratioP2;P2;SDS_P1;SDS_P2;PMS_P1;PMS_P2;Temp;Humidity;BMP_temperature;BMP_pressure;BME280_temperature;BME280_humidity;BME280_pressure;Samples;Min_cycle;Max_cycle;Signal;HPM_P1;HPM_P2
2023/07/04 00:00:27;;;;;;;6.47;1.13;;;;;;;;;;5067558;28;20048;-73
2023/07/04 00:02:55;;;;;;;3.42;0.82;;;;;;;;;;5091333;28;20051;-73
2023/07/04 00:05:23;;;;;;;;;;;;;;;;;;5090792;28;20051;-73
2023/07/04 00:07:50;;;;;;;2.65;0.80;;;;;;;;;;5089751;28;19923;-72
2023/07/04 00:10:16;;;;;;;3.50;1.00;;;;;;;;;;5090721;28;20048;-72
2023/07/04 00:12:48;;;;;;;2.28;1.10;;;;;;;;;;5098902;28;20047;-73
2023/07/04 00:15:14;;;;;;;2.97;0.90;;;;;;;;;;5059522;28;20136;-74
2023/07/04 00:17:42;;;;;;;5.53;1.15;;;;;;;;;;5036018;28;20056;-73
2023/07/04 00:20:10;;;;;;;5.82;1.00;;;;;;;;;;5076653;28;20040;-76
2023/07/04 00:22:40;;;;;;;3.97;0.95;;;;;;;;;;5073425;28;20045;-75
2023/07/04 00:25:07;;;;;;;2.95;0.93;;;;;;;;;;5078716;28;20051;-76
2023/07/04 00:27:34;;;;;;;2.50;0.90;;;;;;;;;;4990831;28;20049;-75
2023/07/04 00:30:04;;;;;;;5.53;0.90;;;;;;;;;;4980258;28;20165;-76
2023/07/04 00:32:31;;;;;;;6.68;1.20;;;;;;;;;;4973083;28;20050;-77
2023/07/04 00:34:59;;;;;;;2.33;0.68;;;;;;;;;;4971836;28;20066;-74
2023/07/04 00:40:12;;;;;;;4.40;1.10;;;;;;;;;;5043911;27;20450;-77
2023/07/04 00:42:39;;;;;;;2.53;0.95;;;;;;;;;;5040059;28;20057;-78
2023/07/04 00:45:09;;;;;;;2.95;0.90;;;;;;;;;;5038221;28;20057;-76
2023/07/04 00:47:43;;;;;;;2.90;0.90;;;;;;;;;;5014695;28;20054;-75
2023/07/04 00:50:13;;;;;;;3.22;1.00;;;;;;;;;;5034745;28;20068;-77
2023/07/04 00:52:41;;;;;;;3.78;1.00;;;;;;;;;;5013885;28;20069;-78
2023/07/04 00:55:11;;;;;;;2.30;0.82;;;;;;;;;;5034979;28;20061;-75
2023/07/04 00:57:38;;;;;;;3.35;0.93;;;;;;;;;;5019182;28;20068;-69
2023/07/04 01:00:14;;;;;;;3.25;0.85;;;;;;;;;;5000209;28;20128;-74
2023/07/04 01:02:40;;;;;;;2.47;0.70;;;;;;;;;;4993467;28;20057;-72
2023/07/04 01:05:07;;;;;;;2.40;0.70;;;;;;;;;;4997024;28;20062;-69
2023/07/04 01:07:38;;;;;;;4.15;1.15;;;;;;;;;;4998699;28;20109;-68
2023/07/04 01:10:10;;;;;;;2.40;1.02;;;;;;;;;;5019347;28;20064;-69
2023/07/04 01:12:39;;;;;;;5.55;1.15;;;;;;;;;;5012642;28;21223;-71
2023/07/04 01:15:06;;;;;;;6.40;1.02;;;;;;;;;;5018130;28;20069;-71
2023/07/04 01:17:32;;;;;;;3.55;0.95;;;;;;;;;;5014661;28;20139;-72
2023/07/04 01:20:00;;;;;;;3.58;1.00;;;;;;;;;;5017907;28;20069;-72
2023/07/04 01:22:29;;;;;;;8.23;1.95;;;;;;;;;;5010118;28;20153;-70
2023/07/04 01:25:02;;;;;;;7.85;1.20;;;;;;;;;;5017686;28;20056;-72
2023/07/04 01:27:31;;;;;;;4.53;1.30;;;;;;;;;;5014748;28;20061;-69
2023/07/04 01:30:00;;;;;;;2.60;1.02;;;;;;;;;;5018500;28;20152;-68
2023/07/04 01:32:28;;;;;;;7.03;1.65;;;;;;;;;;5011083;28;20321;-68
2023/07/04 01:34:58;;;;;;;5.78;1.40;;;;;;;;;;5017813;28;20069;-67
2023/07/04 01:37:25;;;;;;;6.22;1.25;;;;;;;;;;5014216;28;20054;-66
2023/07/04 01:39:51;;;;;;;5.70;1.30;;;;;;;;;;5015633;28;20127;-68
2023/07/04 01:42:18;;;;;;;5.82;1.17;;;;;;;;;;5009781;28;20125;-69
2023/07/04 01:44:48;;;;;;;6.55;1.30;;;;;;;;;;5032653;28;20064;-66
2023/07/04 01:47:14;;;;;;;6.80;1.40;;;;;;;;;;5007084;28;20050;-71
2023/07/04 01:49:41;;;;;;;4.68;1.17;;;;;;;;;;4998376;28;20097;-70
2023/07/04 01:52:08;;;;;;;5.40;1.30;;;;;;;;;;4983314;28;20062;-74
2023/07/04 01:54:35;;;;;;;5.68;1.60;;;;;;;;;;4977278;28;21228;-72
2023/07/04 01:57:02;;;;;;;5.00;1.58;;;;;;;;;;4983524;28;20054;-68
2023/07/04 01:59:28;;;;;;;6.75;1.40;;;;;;;;;;4982320;28;20104;-68
2023/07/04 02:01:56;;;;;;;4.78;1.23;;;;;;;;;;4981561;28;20105;-70
2023/07/04 02:04:25;;;;;;;4.38;1.27;;;;;;;;;;4988380;28;20085;-69
2023/07/04 02:06:52;;;;;;;6.45;1.30;;;;;;;;;;4998402;28;20891;-67
2023/07/04 02:09:18;;;;;;;5.38;1.17;;;;;;;;;;5009758;28;20060;-73
2023/07/04 02:11:46;;;;;;;4.72;1.23;;;;;;;;;;5023587;28;20124;-69
2023/07/04 02:14:13;;;;;;;5.22;1.02;;;;;;;;;;5020302;28;20053;-71
2023/07/04 02:16:39;;;;;;;3.72;1.10;;;;;;;;;;5013764;28;20103;-67
2023/07/04 02:19:07;;;;;;;6.45;1.63;;;;;;;;;;5009425;28;20054;-68
2023/07/04 02:21:34;;;;;;;7.07;1.38;;;;;;;;;;5006122;28;20148;-67
2023/07/04 02:24:01;;;;;;;5.53;1.20;;;;;;;;;;4997374;28;20049;-69
2023/07/04 02:26:27;;;;;;;5.25;1.25;;;;;;;;;;4979448;28;20137;-71
2023/07/04 02:28:54;;;;;;;4.70;1.35;;;;;;;;;;4977513;28;20060;-69
2023/07/04 02:31:20;;;;;;;4.90;1.35;;;;;;;;;;4985026;28;20101;-68
2023/07/04 02:33:47;;;;;;;4.55;1.30;;;;;;;;;;5002257;28;20043;-65
2023/07/04 02:36:17;;;;;;;3.60;1.00;;;;;;;;;;5002580;28;20115;-67
2023/07/04 02:38:43;;;;;;;7.18;1.30;;;;;;;;;;5009060;28;20050;-67
2023/07/04 02:41:10;;;;;;;5.88;1.75;;;;;;;;;;5018928;28;20089;-73
2023/07/04 02:43:36;;;;;;;5.95;1.30;;;;;;;;;;5002437;28;20117;-69
2023/07/04 02:46:03;;;;;;;7.30;1.10;;;;;;;;;;4972623;28;20056;-71
2023/07/04 02:48:31;;;;;;;6.63;1.13;;;;;;;;;;4979895;28;20081;-71
2023/07/04 02:50:57;;;;;;;3.17;1.25;;;;;;;;;;4980606;28;20050;-69
2023/07/04 02:53:25;;;;;;;4.18;1.23;;;;;;;;;;4983030;28;20078;-70
2023/07/04 02:55:53;;;;;;;8.35;1.45;;;;;;;;;;4980191;28;20060;-71
2023/07/04 02:58:19;;;;;;;4.40;1.23;;;;;;;;;;4989382;28;20081;-72
2023/07/04 03:00:51;;;;;;;3.15;1.08;;;;;;;;;;4977070;28;20137;-69
2023/07/04 03:03:17;;;;;;;4.20;1.23;;;;;;;;;;4982829;28;20141;-70
2023/07/04 03:05:44;;;;;;;5.43;1.40;;;;;;;;;;5013660;28;20049;-65
2023/07/04 03:08:11;;;;;;;3.40;1.23;;;;;;;;;;5037901;28;20072;-71
2023/07/04 03:10:39;;;;;;;6.30;1.10;;;;;;;;;;5015394;28;20060;-72
2023/07/04 03:13:06;;;;;;;6.78;1.08;;;;;;;;;;5009802;28;20053;-69
2023/07/04 03:15:32;;;;;;;4.57;1.20;;;;;;;;;;4985571;28;20064;-68
2023/07/04 03:17:59;;;;;;;5.47;1.52;;;;;;;;;;4983006;28;20108;-72
2023/07/04 03:20:26;;;;;;;4.25;1.20;;;;;;;;;;4980965;28;20064;-69
2023/07/04 03:22:52;;;;;;;5.55;1.02;;;;;;;;;;4984560;28;20058;-70
2023/07/04 03:25:19;;;;;;;5.47;1.02;;;;;;;;;;4983216;28;20049;-69
2023/07/04 03:27:47;;;;;;;4.05;1.20;;;;;;;;;;4986581;28;20058;-71
2023/07/04 03:30:15;;;;;;;3.20;1.13;;;;;;;;;;4998224;28;20061;-71
2023/07/04 03:32:41;;;;;;;7.20;1.60;;;;;;;;;;4976350;28;20070;-68
2023/07/04 03:35:08;;;;;;;4.35;1.38;;;;;;;;;;4977931;28;20319;-70
2023/07/04 03:37:39;;;;;;;3.97;1.40;;;;;;;;;;4996783;28;20061;-70
2023/07/04 03:40:11;;;;;;;4.07;1.30;;;;;;;;;;5002386;28;20128;-73
2023/07/04 03:42:38;;;;;;;3.15;1.20;;;;;;;;;;4994852;28;20077;-71
2023/07/04 03:45:07;;;;;;;3.03;1.30;;;;;;;;;;4988177;28;20064;-72
2023/07/04 03:47:34;;;;;;;10.82;1.50;;;;;;;;;;5001379;28;20053;-70
2023/07/04 03:50:00;;;;;;;4.10;1.20;;;;;;;;;;5003470;28;20061;-70
2023/07/04 03:52:27;;;;;;;4.53;1.17;;;;;;;;;;5001518;28;20058;-73
2023/07/04 03:54:54;;;;;;;7.35;1.20;;;;;;;;;;4986528;28;20053;-74
2023/07/04 03:57:20;;;;;;;2.70;1.10;;;;;;;;;;5001080;28;20057;-68
2023/07/04 03:59:47;;;;;;;5.18;1.23;;;;;;;;;;5002532;28;20070;-71
2023/07/04 04:02:15;;;;;;;4.45;1.20;;;;;;;;;;5001277;28;20144;-67
2023/07/04 04:04:41;;;;;;;7.80;1.38;;;;;;;;;;4976556;28;20058;-70
2023/07/04 04:07:08;;;;;;;3.67;1.20;;;;;;;;;;4982805;28;20174;-71
2023/07/04 04:09:37;;;;;;;4.85;1.30;;;;;;;;;;4986963;28;20079;-70
2023/07/04 04:12:04;;;;;;;4.85;1.30;;;;;;;;;;4983152;28;20050;-68
2023/07/04 04:14:32;;;;;;;5.72;1.30;;;;;;;;;;4983813;28;20054;-68
2023/07/04 04:16:59;;;;;;;5.13;1.27;;;;;;;;;;4983812;28;20084;-66
2023/07/04 04:19:29;;;;;;;5.95;1.40;;;;;;;;;;4982140;28;20057;-67
2023/07/04 04:21:56;;;;;;;5.30;1.17;;;;;;;;;;4982716;28;20065;-68
2023/07/04 04:24:23;;;;;;;5.43;1.50;;;;;;;;;;4942924;28;20093;-70
2023/07/04 04:26:52;;;;;;;5.70;1.48;;;;;;;;;;4971047;28;20054;-71
2023/07/04 04:29:19;;;;;;;4.65;1.30;;;;;;;;;;4982457;28;20050;-67
2023/07/04 04:31:49;;;;;;;6.88;1.30;;;;;;;;;;4981063;28;20120;-67
2023/07/04 04:34:17;;;;;;;5.50;1.38;;;;;;;;;;4964399;28;20085;-67
2023/07/04 04:36:45;;;;;;;10.98;1.38;;;;;;;;;;5007964;28;20141;-69
2023/07/04 04:39:12;;;;;;;11.32;3.70;;;;;;;;;;5002783;28;20073;-70
2023/07/04 04:41:38;;;;;;;7.82;2.58;;;;;;;;;;5001915;28;20052;-67
2023/07/04 04:44:06;;;;;;;6.95;2.08;;;;;;;;;;4995426;28;20156;-69
2023/07/04 04:46:36;;;;;;;7.88;1.42;;;;;;;;;;4971834;28;20054;-68
2023/07/04 04:49:03;;;;;;;9.15;1.95;;;;;;;;;;4979108;28;20056;-72
2023/07/04 04:51:30;;;;;;;9.75;2.10;;;;;;;;;;4980248;28;20061;-69
2023/07/04 04:54:01;;;;;;;3.53;0.95;;;;;;;;;;4977434;28;20077;-72
2023/07/04 04:56:28;;;;;;;7.50;2.10;;;;;;;;;;5014403;28;20107;-69
2023/07/04 04:58:54;;;;;;;6.40;1.40;;;;;;;;;;4996240;28;20062;-71
2023/07/04 05:01:23;;;;;;;8.13;1.70;;;;;;;;;;5003990;28;20064;-69
2023/07/04 05:03:51;;;;;;;11.20;1.83;;;;;;;;;;5002492;28;20100;-70
2023/07/04 05:06:20;;;;;;;5.32;1.50;;;;;;;;;;5002729;28;20069;-70
2023/07/04 05:08:47;;;;;;;11.63;2.17;;;;;;;;;;4993821;28;20049;-68
2023/07/04 05:11:15;;;;;;;7.43;1.52;;;;;;;;;;5003646;28;20068;-71
2023/07/04 05:13:42;;;;;;;7.63;2.30;;;;;;;;;;5002632;28;20050;-66
2023/07/04 05:16:09;;;;;;;25.85;5.25;;;;;;;;;;4998733;28;20061;-69
2023/07/04 05:18:37;;;;;;;22.60;6.97;;;;;;;;;;4997828;28;20057;-70
2023/07/04 05:21:04;;;;;;;13.63;3.25;;;;;;;;;;5008288;28;20120;-70
2023/07/04 05:23:31;;;;;;;8.35;1.98;;;;;;;;;;5002001;28;20054;-69
2023/07/04 05:26:01;;;;;;;11.48;2.25;;;;;;;;;;4977551;28;20054;-69
2023/07/04 05:28:29;;;;;;;7.80;1.67;;;;;;;;;;4986453;28;20054;-71
2023/07/04 05:30:59;;;;;;;14.98;2.53;;;;;;;;;;4985699;28;20081;-71
2023/07/04 05:33:26;;;;;;;11.70;1.90;;;;;;;;;;4985399;28;20058;-69
2023/07/04 05:35:52;;;;;;;7.05;1.80;;;;;;;;;;4967749;28;20145;-70
2023/07/04 05:38:19;;;;;;;12.82;2.50;;;;;;;;;;5007270;28;20117;-67
2023/07/04 05:40:45;;;;;;;8.70;2.03;;;;;;;;;;5017646;28;20128;-67
2023/07/04 05:43:12;;;;;;;9.40;1.35;;;;;;;;;;5004168;28;20050;-67
2023/07/04 05:45:47;;;;;;;8.02;1.70;;;;;;;;;;4995698;28;20140;-67
2023/07/04 05:48:13;;;;;;;17.50;2.33;;;;;;;;;;5009075;28;20060;-70
2023/07/04 05:50:49;;;;;;;8.05;2.05;;;;;;;;;;4997260;28;20053;-69
2023/07/04 05:53:16;;;;;;;6.30;1.60;;;;;;;;;;5004457;28;20057;-70
2023/07/04 05:55:42;;;;;;;7.85;2.00;;;;;;;;;;5003536;28;20054;-70
2023/07/04 05:58:10;;;;;;;12.18;2.22;;;;;;;;;;5000777;28;20108;-71
2023/07/04 06:00:36;;;;;;;3.63;1.38;;;;;;;;;;4976641;28;20054;-70
2023/07/04 06:03:07;;;;;;;6.63;1.38;;;;;;;;;;4983187;28;20209;-70
2023/07/04 06:05:38;;;;;;;5.53;1.10;;;;;;;;;;4999374;28;20120;-71
2023/07/04 06:08:07;;;;;;;4.13;1.20;;;;;;;;;;5005813;28;20061;-70
2023/07/04 06:10:33;;;;;;;15.57;1.83;;;;;;;;;;4998827;28;20050;-69
2023/07/04 06:13:00;;;;;;;6.60;1.58;;;;;;;;;;5003963;28;20081;-70
2023/07/04 06:15:27;;;;;;;10.73;1.63;;;;;;;;;;4991482;28;20057;-68
2023/07/04 06:17:53;;;;;;;11.38;1.50;;;;;;;;;;5002232;28;20093;-68
2023/07/04 06:20:23;;;;;;;7.45;1.65;;;;;;;;;;5002447;28;20061;-69
2023/07/04 06:22:49;;;;;;;11.00;2.10;;;;;;;;;;4998478;28;21472;-66
2023/07/04 06:25:16;;;;;;;5.90;1.38;;;;;;;;;;4979814;28;20062;-69
2023/07/04 06:27:44;;;;;;;5.80;1.48;;;;;;;;;;4971020;28;20059;-67
2023/07/04 06:30:11;;;;;;;12.38;2.10;;;;;;;;;;4977288;28;20142;-67
2023/07/04 06:32:38;;;;;;;9.20;1.50;;;;;;;;;;4983472;28;20054;-67
2023/07/04 06:35:05;;;;;;;11.02;2.05;;;;;;;;;;4971045;28;20089;-70
2023/07/04 06:37:32;;;;;;;11.32;2.50;;;;;;;;;;4984233;28;20120;-69
2023/07/04 06:39:59;;;;;;;9.82;1.60;;;;;;;;;;4982797;28;20045;-69
2023/07/04 06:42:26;;;;;;;11.55;2.22;;;;;;;;;;4982189;28;20058;-68
2023/07/04 06:44:52;;;;;;;10.27;2.95;;;;;;;;;;4963788;28;20045;-71
2023/07/04 06:47:19;;;;;;;10.30;1.80;;;;;;;;;;5002397;28;20062;-69
2023/07/04 06:49:47;;;;;;;6.07;2.00;;;;;;;;;;5002589;28;20080;-68
2023/07/04 06:52:14;;;;;;;7.50;2.00;;;;;;;;;;5004878;28;20116;-70
2023/07/04 06:54:42;;;;;;;16.52;2.83;;;;;;;;;;4989478;28;20057;-68
2023/07/04 06:57:10;;;;;;;8.02;1.75;;;;;;;;;;5002946;28;20045;-68
2023/07/04 06:59:39;;;;;;;13.57;2.65;;;;;;;;;;5003777;28;20050;-67
2023/07/04 07:02:09;;;;;;;;;;;;;;;;;;5020068;28;20057;-67
2023/07/04 07:04:35;;;;;;;9.90;1.60;;;;;;;;;;5010190;28;20076;-68
2023/07/04 07:07:03;;;;;;;12.68;2.00;;;;;;;;;;5002431;28;20054;-67
2023/07/04 07:09:31;;;;;;;6.70;1.83;;;;;;;;;;4983889;28;20065;-65
2023/07/04 07:11:59;;;;;;;5.13;1.33;;;;;;;;;;4982726;28;20066;-68
2023/07/04 07:14:29;;;;;;;7.28;1.65;;;;;;;;;;4978114;28;20058;-66
2023/07/04 07:16:56;;;;;;;13.43;2.50;;;;;;;;;;4998149;28;20085;-67
2023/07/04 07:19:26;;;;;;;5.95;1.67;;;;;;;;;;5002871;28;20065;-68
2023/07/04 07:21:52;;;;;;;9.23;1.63;;;;;;;;;;5004182;28;20050;-67
2023/07/04 07:24:22;;;;;;;5.10;1.58;;;;;;;;;;5002134;28;20054;-68
2023/07/04 07:26:50;;;;;;;6.38;1.70;;;;;;;;;;4972845;28;20156;-68
2023/07/04 07:29:20;;;;;;;6.18;1.52;;;;;;;;;;4984752;28;20055;-67
2023/07/04 07:31:50;;;;;;;5.93;1.33;;;;;;;;;;4982376;28;20056;-69
2023/07/04 07:34:16;;;;;;;10.38;2.03;;;;;;;;;;4976954;28;20153;-68
2023/07/04 07:36:43;;;;;;;11.75;1.90;;;;;;;;;;4986390;28;20293;-69
2023/07/04 07:39:11;;;;;;;11.23;2.03;;;;;;;;;;5003384;28;20058;-66
2023/07/04 07:41:39;;;;;;;10.50;1.67;;;;;;;;;;4985827;28;20115;-69
2023/07/04 07:44:06;;;;;;;7.15;1.90;;;;;;;;;;5000573;28;20103;-67
2023/07/04 07:46:37;;;;;;;6.00;1.70;;;;;;;;;;4998710;28;20049;-70
2023/07/04 07:49:04;;;;;;;12.43;2.25;;;;;;;;;;4999373;28;20141;-68
2023/07/04 07:51:31;;;;;;;7.15;1.50;;;;;;;;;;5001072;28;20065;-66
2023/07/04 07:53:58;;;;;;;11.15;1.92;;;;;;;;;;5003645;28;20085;-66
2023/07/04 07:56:26;;;;;;;6.90;1.80;;;;;;;;;;5007237;28;20100;-68
2023/07/04 07:58:56;;;;;;;9.23;1.65;;;;;;;;;;4993310;28;20058;-67
2023/07/04 08:01:24;;;;;;;5.13;1.38;;;;;;;;;;4988185;28;20145;-67
2023/07/04 08:03:55;;;;;;;8.70;1.73;;;;;;;;;;5006665;28;20065;-68
2023/07/04 08:06:22;;;;;;;10.68;1.48;;;;;;;;;;5001362;28;20054;-66
2023/07/04 08:08:50;;;;;;;9.32;1.50;;;;;;;;;;5001929;28;20080;-67
2023/07/04 08:11:17;;;;;;;6.57;1.33;;;;;;;;;;4965762;28;20063;-69
2023/07/04 08:13:44;;;;;;;7.80;1.98;;;;;;;;;;4988865;28;20058;-67
2023/07/04 08:16:13;;;;;;;7.70;1.73;;;;;;;;;;5002298;28;20057;-71
2023/07/04 08:18:40;;;;;;;7.07;2.10;;;;;;;;;;4998467;28;20060;-69
2023/07/04 08:21:08;;;;;;;13.02;2.22;;;;;;;;;;5003598;28;20058;-68
2023/07/04 08:23:34;;;;;;;8.15;1.10;;;;;;;;;;5001245;28;20056;-68
2023/07/04 08:26:01;;;;;;;10.65;1.70;;;;;;;;;;5000770;28;20128;-68
2023/07/04 08:28:27;;;;;;;7.80;1.48;;;;;;;;;;5002407;28;20054;-70
2023/07/04 08:31:02;;;;;;;6.03;1.50;;;;;;;;;;4976668;28;20062;-66
2023/07/04 08:33:31;;;;;;;4.88;1.50;;;;;;;;;;4986255;28;20147;-69
2023/07/04 08:35:58;;;;;;;8.63;2.03;;;;;;;;;;4982900;28;20150;-68
2023/07/04 08:38:26;;;;;;;4.05;1.05;;;;;;;;;;4999137;28;20050;-66
2023/07/04 08:40:53;;;;;;;5.35;1.52;;;;;;;;;;4983945;28;20189;-69
2023/07/04 08:43:22;;;;;;;8.15;1.55;;;;;;;;;;5011674;28;20108;-68
2023/07/04 08:45:51;;;;;;;7.03;1.23;;;;;;;;;;5017495;28;20148;-70
2023/07/04 08:48:20;;;;;;;7.60;1.63;;;;;;;;;;5017032;28;20054;-66
2023/07/04 08:50:48;;;;;;;6.10;1.60;;;;;;;;;;4997120;28;20105;-68
2023/07/04 08:53:16;;;;;;;6.38;1.25;;;;;;;;;;5003943;28;20105;-71
2023/07/04 08:55:49;;;;;;;12.45;1.60;;;;;;;;;;5002059;28;20054;-69
2023/07/04 08:58:21;;;;;;;9.52;1.73;;;;;;;;;;5003365;28;20062;-70
2023/07/04 09:00:47;;;;;;;8.15;1.40;;;;;;;;;;4979928;28;20104;-68
2023/07/04 09:03:17;;;;;;;7.15;1.40;;;;;;;;;;4995951;28;20066;-67
2023/07/04 09:05:58;;;;;;;9.75;1.70;;;;;;;;;;4984487;28;20104;-67
2023/07/04 09:08:30;;;;;;;7.78;1.38;;;;;;;;;;4987092;28;20062;-67
2023/07/04 09:11:01;;;;;;;12.77;2.75;;;;;;;;;;4978627;28;20336;-69
2023/07/04 09:13:32;;;;;;;5.15;1.15;;;;;;;;;;4985947;28;20058;-71
2023/07/04 09:16:02;;;;;;;8.48;1.55;;;;;;;;;;5000738;28;20081;-69
2023/07/04 09:18:33;;;;;;;8.85;1.75;;;;;;;;;;4985401;28;20054;-68
2023/07/04 09:21:07;;;;;;;7.50;1.42;;;;;;;;;;4988259;28;20049;-71
2023/07/04 09:23:39;;;;;;;6.00;1.73;;;;;;;;;;5005491;28;20073;-69
2023/07/04 09:26:09;;;;;;;7.18;1.63;;;;;;;;;;5005066;28;20120;-68
2023/07/04 09:28:37;;;;;;;7.78;1.65;;;;;;;;;;5002170;28;20057;-68
2023/07/04 09:31:10;;;;;;;9.35;1.48;;;;;;;;;;4993577;28;20085;-67
2023/07/04 09:33:39;;;;;;;6.00;1.30;;;;;;;;;;5008751;28;20078;-68
2023/07/04 09:36:06;;;;;;;7.93;1.20;;;;;;;;;;5006515;28;20062;-68
2023/07/04 09:38:50;;;;;;;4.82;1.38;;;;;;;;;;5003176;28;20137;-68
2023/07/04 09:41:25;;;;;;;5.75;1.50;;;;;;;;;;4967724;28;20050;-67
2023/07/04 09:43:55;;;;;;;11.18;1.30;;;;;;;;;;5003445;28;20041;-71
2023/07/04 09:46:24;;;;;;;3.50;1.25;;;;;;;;;;5021678;28;20053;-66
2023/07/04 09:48:54;;;;;;;5.93;1.75;;;;;;;;;;5014035;28;20141;-70
2023/07/04 09:51:34;;;;;;;11.45;1.80;;;;;;;;;;4964311;28;20050;-70
2023/07/04 09:54:15;;;;;;;6.60;1.50;;;;;;;;;;5003721;28;20085;-70
2023/07/04 09:57:05;;;;;;;7.13;1.23;;;;;;;;;;4969608;28;20078;-71
2023/07/04 09:59:36;;;;;;;5.00;1.10;;;;;;;;;;4966314;28;20069;-67
2023/07/04 10:02:18;;;;;;;5.38;1.30;;;;;;;;;;4903361;28;20142;-70
2023/07/04 10:04:50;;;;;;;6.20;1.45;;;;;;;;;;4951737;28;20061;-73
2023/07/04 10:07:20;;;;;;;7.78;1.58;;;;;;;;;;4946754;28;20142;-70
2023/07/04 10:09:50;;;;;;;6.85;1.48;;;;;;;;;;4962960;28;20054;-74
2023/07/04 10:12:17;;;;;;;5.80;1.38;;;;;;;;;;4876848;28;20087;-71
2023/07/04 10:14:47;;;;;;;8.95;1.77;;;;;;;;;;4942756;28;20062;-73
2023/07/04 10:17:24;;;;;;;7.00;2.13;;;;;;;;;;4946345;28;20050;-71
2023/07/04 10:20:02;;;;;;;4.45;1.42;;;;;;;;;;4947466;28;20058;-72
2023/07/04 10:25:15;;;;;;;4.40;1.40;;;;;;;;;;4835097;29;20120;-69
2023/07/04 10:27:44;;;;;;;5.47;1.40;;;;;;;;;;4906126;29;20119;-69
2023/07/04 10:30:17;;;;;;;8.43;1.60;;;;;;;;;;4905807;29;20312;-68
2023/07/04 10:32:47;;;;;;;5.78;1.70;;;;;;;;;;4888952;28;20054;-68
2023/07/04 10:35:15;;;;;;;6.95;1.75;;;;;;;;;;4984265;28;20117;-67
2023/07/04 10:37:44;;;;;;;3.38;1.15;;;;;;;;;;4985235;28;20054;-68
2023/07/04 10:40:14;;;;;;;8.98;2.50;;;;;;;;;;5005964;28;20176;-70
2023/07/04 10:42:47;;;;;;;8.23;1.45;;;;;;;;;;4936585;28;20145;-68
2023/07/04 10:45:21;;;;;;;5.25;1.67;;;;;;;;;;4964268;28;20054;-68
2023/07/04 10:48:04;;;;;;;4.88;1.25;;;;;;;;;;4966828;28;20058;-71
2023/07/04 10:50:49;;;;;;;5.90;1.33;;;;;;;;;;4982657;28;20050;-70
2023/07/04 10:53:18;;;;;;;6.82;1.50;;;;;;;;;;4959286;28;20062;-71
2023/07/04 10:55:50;;;;;;;9.73;1.27;;;;;;;;;;5006223;28;20061;-68
2023/07/04 10:58:42;;;;;;;6.15;1.77;;;;;;;;;;5004334;28;20061;-70
2023/07/04 11:01:20;;;;;;;6.88;1.38;;;;;;;;;;4927915;29;20047;-68
2023/07/04 11:04:06;;;;;;;7.95;1.52;;;;;;;;;;4969820;28;20065;-69
2023/07/04 11:06:43;;;;;;;5.22;1.35;;;;;;;;;;4999157;28;20049;-69
2023/07/04 11:09:18;;;;;;;6.93;1.27;;;;;;;;;;5002294;28;20065;-69
2023/07/04 11:12:05;;;;;;;;;;;;;;;;;;;;;
2023/07/04 11:14:48;;;;;;;7.97;1.00;;;;;;;;;;4966244;28;20054;-72
2023/07/04 11:17:28;;;;;;;6.47;1.45;;;;;;;;;;4984042;28;20061;-68
2023/07/04 11:20:07;;;;;;;;;;;;;;;;;;;;;
2023/07/04 11:23:09;;;;;;;5.65;1.25;;;;;;;;;;4941241;28;20074;-67
2023/07/04 11:25:54;;;;;;;7.35;1.50;;;;;;;;;;4956681;28;20101;-71
2023/07/04 11:31:23;;;;;;;;;;;;;;;;;;;;;
2023/07/04 11:34:05;;;;;;;3.65;1.10;;;;;;;;;;5005600;28;20060;-68
2023/07/04 11:36:33;;;;;;;5.03;1.17;;;;;;;;;;5039497;28;20060;-70
2023/07/04 11:39:03;;;;;;;5.90;1.40;;;;;;;;;;5033550;28;20049;-67
2023/07/04 11:41:30;;;;;;;4.57;0.93;;;;;;;;;;5029516;28;20075;-66
2023/07/04 11:44:00;;;;;;;6.78;1.27;;;;;;;;;;5020655;28;20095;-68
2023/07/04 11:46:32;;;;;;;5.32;1.08;;;;;;;;;;5025771;28;20199;-68
2023/07/04 11:48:59;;;;;;;7.65;1.52;;;;;;;;;;5020194;28;20061;-66
2023/07/04 11:51:29;;;;;;;5.72;1.40;;;;;;;;;;5023205;28;20045;-66
2023/07/04 11:53:57;;;;;;;5.13;1.13;;;;;;;;;;5039796;28;20057;-67
2023/07/04 11:56:39;;;;;;;7.50;1.30;;;;;;;;;;5042847;28;20088;-71
2023/07/04 11:59:27;;;;;;;3.65;1.17;;;;;;;;;;5023697;28;20064;-71
2023/07/04 12:02:12;;;;;;;6.82;1.52;;;;;;;;;;5038293;28;20057;-70
2023/07/04 12:04:46;;;;;;;13.15;4.70;;;;;;;;;;5018425;28;20053;-70
2023/07/04 12:07:17;;;;;;;8.05;1.58;;;;;;;;;;5041119;28;20052;-67
2023/07/04 12:09:46;;;;;;;8.02;1.67;;;;;;;;;;5041348;28;20155;-71
2023/07/04 12:12:22;;;;;;;4.65;1.17;;;;;;;;;;5022857;28;20143;-68
2023/07/04 12:14:51;;;;;;;5.07;1.42;;;;;;;;;;5033894;28;20057;-67
2023/07/04 12:17:18;;;;;;;6.53;1.23;;;;;;;;;;5023767;28;20205;-68
2023/07/04 12:19:45;;;;;;;5.30;1.20;;;;;;;;;;5042020;28;20138;-68
2023/07/04 12:22:17;;;;;;;6.82;1.55;;;;;;;;;;5020006;28;20295;-69
2023/07/04 12:24:45;;;;;;;8.73;1.50;;;;;;;;;;5019654;28;20049;-67
2023/07/04 12:27:14;;;;;;;4.97;1.50;;;;;;;;;;5039882;28;20049;-69
2023/07/04 12:29:45;;;;;;;3.70;1.25;;;;;;;;;;5042252;28;20057;-68
2023/07/04 12:32:15;;;;;;;3.92;1.23;;;;;;;;;;5037063;28;20080;-68
2023/07/04 12:34:46;;;;;;;4.72;1.35;;;;;;;;;;5031779;28;20163;-69
2023/07/04 12:37:16;;;;;;;7.10;1.45;;;;;;;;;;5043756;28;20126;-68
2023/07/04 12:39:47;;;;;;;5.15;1.10;;;;;;;;;;5023410;28;20041;-69
2023/07/04 12:42:27;;;;;;;5.82;1.35;;;;;;;;;;4997567;28;20094;-68
2023/07/04 12:44:57;;;;;;;4.60;1.35;;;;;;;;;;5016216;28;20216;-67
2023/07/04 12:47:24;;;;;;;8.50;1.50;;;;;;;;;;5022402;28;20053;-69
2023/07/04 12:49:54;;;;;;;6.38;1.60;;;;;;;;;;5019085;28;20088;-68
2023/07/04 12:52:27;;;;;;;6.50;1.60;;;;;;;;;;4977817;28;20095;-68
2023/07/04 12:54:55;;;;;;;6.03;1.23;;;;;;;;;;4986680;28;20091;-68
2023/07/04 12:57:24;;;;;;;4.78;1.13;;;;;;;;;;5001328;28;20058;-68
2023/07/04 12:59:51;;;;;;;5.85;1.30;;;;;;;;;;4984641;28;20053;-67
2023/07/04 13:02:22;;;;;;;5.03;1.23;;;;;;;;;;4962243;28;20057;-66
2023/07/04 13:04:55;;;;;;;6.53;1.42;;;;;;;;;;4999920;28;20049;-66
2023/07/04 13:07:26;;;;;;;8.40;1.65;;;;;;;;;;4984984;28;20062;-68
2023/07/04 13:09:53;;;;;;;;;;;;;;;;;;4996414;28;20057;-67
2023/07/04 13:12:26;;;;;;;5.00;1.20;;;;;;;;;;4978547;28;19933;-67
2023/07/04 13:15:06;;;;;;;10.00;1.40;;;;;;;;;;4979235;28;20499;-68
2023/07/04 13:17:32;;;;;;;5.03;1.55;;;;;;;;;;5003142;28;20152;-69
2023/07/04 13:20:10;;;;;;;4.65;1.17;;;;;;;;;;4998913;28;20058;-68
2023/07/04 13:22:50;;;;;;;5.07;1.40;;;;;;;;;;4980952;28;20129;-70
2023/07/04 13:25:30;;;;;;;6.00;1.10;;;;;;;;;;4988382;28;20053;-69
2023/07/04 13:28:06;;;;;;;9.10;1.50;;;;;;;;;;5021003;28;20212;-67
2023/07/04 13:30:35;;;;;;;5.28;1.25;;;;;;;;;;5020011;28;20063;-67
2023/07/04 13:33:10;;;;;;;3.63;1.20;;;;;;;;;;4970440;28;20058;-68
2023/07/04 13:35:39;;;;;;;3.95;1.00;;;;;;;;;;5001202;28;20061;-68
2023/07/04 13:38:07;;;;;;;4.28;1.13;;;;;;;;;;5024274;28;20056;-69
2023/07/04 13:40:34;;;;;;;4.10;1.10;;;;;;;;;;5026387;28;20053;-68
2023/07/04 13:43:13;;;;;;;4.03;1.27;;;;;;;;;;5018741;28;21154;-67
2023/07/04 13:45:40;;;;;;;3.67;1.20;;;;;;;;;;5032821;28;20072;-66
2023/07/04 13:48:07;;;;;;;6.05;0.98;;;;;;;;;;5030123;28;20052;-67
2023/07/04 13:50:40;;;;;;;5.93;1.15;;;;;;;;;;5029369;28;20045;-68
2023/07/04 13:53:08;;;;;;;6.18;1.38;;;;;;;;;;4984369;28;20142;-67
2023/07/04 13:55:35;;;;;;;5.15;1.25;;;;;;;;;;5043373;28;20061;-67
2023/07/04 13:58:02;;;;;;;5.78;1.58;;;;;;;;;;5027211;28;20073;-67
2023/07/04 14:00:31;;;;;;;6.72;1.92;;;;;;;;;;5044272;28;20076;-67
2023/07/04 14:02:58;;;;;;;3.08;1.00;;;;;;;;;;4998070;28;20061;-67
2023/07/04 14:05:24;;;;;;;2.95;0.93;;;;;;;;;;5026469;28;20057;-68
2023/07/04 14:07:52;;;;;;;5.95;1.42;;;;;;;;;;5047017;28;20052;-68
2023/07/04 14:10:19;;;;;;;3.83;1.13;;;;;;;;;;5043934;28;20056;-67
2023/07/04 14:12:46;;;;;;;5.22;1.90;;;;;;;;;;5035929;28;20060;-66
2023/07/04 14:15:12;;;;;;;4.85;1.50;;;;;;;;;;5025907;28;20136;-66
2023/07/04 14:17:41;;;;;;;4.30;1.30;;;;;;;;;;5036570;28;20059;-67
2023/07/04 14:20:08;;;;;;;5.47;1.35;;;;;;;;;;5040714;28;20061;-66
2023/07/04 14:22:36;;;;;;;5.72;1.50;;;;;;;;;;5029617;28;20056;-66
2023/07/04 14:25:03;;;;;;;9.80;1.33;;;;;;;;;;5003351;28;20063;-66
2023/07/04 14:27:29;;;;;;;6.70;1.42;;;;;;;;;;5041339;28;20052;-65
2023/07/04 14:29:56;;;;;;;4.85;1.45;;;;;;;;;;5045273;28;20064;-65
2023/07/04 14:32:23;;;;;;;4.13;1.27;;;;;;;;;;5042012;28;20057;-66
2023/07/04 14:34:50;;;;;;;6.10;1.55;;;;;;;;;;5026088;28;20139;-66
2023/07/04 14:37:17;;;;;;;4.03;1.58;;;;;;;;;;5045110;28;20116;-66
2023/07/04 14:39:50;;;;;;;2.67;1.00;;;;;;;;;;5042314;28;20052;-65
2023/07/04 14:42:16;;;;;;;5.30;1.30;;;;;;;;;;5043359;28;20056;-66
2023/07/04 14:44:44;;;;;;;3.05;1.13;;;;;;;;;;5015195;28;20048;-67
2023/07/04 14:47:11;;;;;;;6.25;1.15;;;;;;;;;;5036244;28;20061;-66
2023/07/04 14:49:37;;;;;;;7.78;1.52;;;;;;;;;;5043712;28;20084;-67
2023/07/04 14:52:06;;;;;;;2.88;1.10;;;;;;;;;;5025380;28;20052;-65
2023/07/04 14:54:34;;;;;;;2.03;1.00;;;;;;;;;;5041060;28;20102;-67
2023/07/04 14:57:01;;;;;;;3.28;1.20;;;;;;;;;;5038196;28;21312;-67
2023/07/04 14:59:28;;;;;;;5.60;1.33;;;;;;;;;;5024557;28;20056;-66
2023/07/04 15:01:55;;;;;;;3.53;1.20;;;;;;;;;;5043005;28;20138;-66
2023/07/04 15:04:27;;;;;;;6.05;1.23;;;;;;;;;;5039032;28;20307;-67
2023/07/04 15:06:56;;;;;;;7.30;1.60;;;;;;;;;;5018508;28;20099;-67